D/T METAR WX W/DIR W/SPE G/SPE TEMP DEWP
25/02/20 14:20 EGTE 251420Z 24009KT 9999 8000W -SHRA FEW010 SCT023 BKN035 04/02 Q1001 -SHRA WSW (240°) 10.4mph 4°C 2°C
25/02/20 13:50 EGTE 251350Z 25015KT 9999 8000W -SHRA FEW012 SCT023 BKN035 03/03 Q1002 -SHRA WSW (250°) 17.3mph 3°C 3°C
25/02/20 13:20 EGTE 251320Z 24012KT 210V270 9999 8000W -SHRA FEW012 SCT028 04/03 Q1001 -SHRA WSW (240°) 13.8mph 4°C 3°C
25/02/20 12:50 EGTE 251250Z 25014G24KT 9000 -SHRA SCT012CB 08/03 Q1002 -SHRA WSW (250°) 16.1mph 27.6mph 8°C 3°C
25/02/20 12:20 EGTE 251220Z 25016G26KT 9999 9000W -SHRA SCT012CB 08/01 Q1002 -SHRA WSW (250°) 18.4mph 29.9mph 8°C 1°C
25/02/20 11:50 EGTE 251150Z 26018KT 230V300 9999 FEW012CB 08/01 Q1002 W (260°) 20.7mph 8°C 1°C
25/02/20 11:20 EGTE 251120Z 26013KT 230V290 9999 FEW012CB 08/05 Q1002 W (260°) 15.0mph 8°C 5°C
25/02/20 10:50 EGTE 251050Z 27011KT 240V300 9999 FEW012 06/03 Q1003 W (270°) 12.7mph 6°C 3°C
25/02/20 10:20 EGTE 251020Z 24008KT 200V260 9999 SCT012 FEW020CB 05/03 Q1003 WSW (240°) 9.2mph 5°C 3°C
25/02/20 09:50 EGTE 250950Z 25007KT 9999 SHRA SCT020 06/04 Q1004 SHRA WSW (250°) 8.1mph 6°C 4°C
25/02/20 08:50 EGTE 250850Z 27008KT 240V310 9999 -SHRA SCT015CB 03/03 Q1004 -SHRA W (270°) 9.2mph 3°C 3°C
25/02/20 08:20 EGTE 250820Z 28010KT 250V320 8000 -SHRA SCT014CB 04/03 Q1004 -SHRA W (280°) 11.5mph 4°C 3°C
25/02/20 07:50 EGTE 250750Z 21005KT 9999 7000N -SHRA SCT018CB 05/04 Q1004 -SHRA SSW (210°) 5.8mph 5°C 4°C
25/02/20 07:20 EGTE 250720Z 21005KT 9999 FEW022CB 04/03 Q1004 SSW (210°) 5.8mph 4°C 3°C
25/02/20 06:50 EGTE 250650Z 20005KT 9999 VCSH FEW018 05/04 Q1004 VCSH SSW (200°) 5.8mph 5°C 4°C
25/02/20 06:20 EGTE 250620Z 24006KT 9999 -SHRA SCT020 06/05 Q1005 -SHRA WSW (240°) 6.9mph 6°C 5°C
25/02/20 02:20 EGTE 250220Z 25008KT 210V280 9999 FEW015 06/05 Q1007 WSW (250°) 9.2mph 6°C 5°C
25/02/20 01:50 EGTE 250150Z 25008KT 9999 FEW010 06/05 Q1007 WSW (250°) 9.2mph 6°C 5°C
24/02/20 23:50 EGTE 242350Z 23007KT 9999 FEW020 SCT045 09/06 Q1008 SW (230°) 8.1mph 9°C 6°C
24/02/20 23:20 EGTE 242320Z 24006KT 210V270 9999 FEW020 SCT045 08/06 Q1008 WSW (240°) 6.9mph 8°C 6°C
24/02/20 22:50 EGTE 242250Z 24009KT 9999 FEW020 SCT045 08/05 Q1008 WSW (240°) 10.4mph 8°C 5°C
24/02/20 22:20 EGTE 242220Z 23009KT 200V260 9999 VCSH FEW020 08/06 Q1008 VCSH SW (230°) 10.4mph 8°C 6°C
24/02/20 21:50 EGTE 242150Z 25008KT 9999 FEW020 08/06 Q1009 WSW (250°) 9.2mph 8°C 6°C
24/02/20 21:20 EGTE 242120Z 25010KT 9999 FEW020 08/05 Q1009 WSW (250°) 11.5mph 8°C 5°C
24/02/20 20:50 EGTE 242050Z 25008KT 230V290 9999 FEW020 08/06 Q1009 WSW (250°) 9.2mph 8°C 6°C
24/02/20 20:20 EGTE 242020Z 27010KT 230V300 9999 FEW020 SCT032 08/05 Q1009 W (270°) 11.5mph 8°C 5°C
24/02/20 19:50 EGTE 241950Z 27011KT 9999 SCT018 BKN033 09/06 Q1009 W (270°) 12.7mph 9°C 6°C
24/02/20 19:20 EGTE 241920Z 27010KT 9999 SCT018 BKN025 07/05 Q1009 W (270°) 11.5mph 7°C 5°C
24/02/20 18:50 EGTE 241850Z 26012KT 230V290 9999 SCT023 BKN038 09/06 Q1008 W (260°) 13.8mph 9°C 6°C
24/02/20 18:20 EGTE 241820Z 26010KT 240V300 9999 FEW017 BKN022 10/07 Q1009 W (260°) 11.5mph 10°C 7°C
24/02/20 17:20 EGTE 241720Z 27014G24KT 240V320 9999 FEW020 BKN025 10/06 Q1008 W (270°) 16.1mph 27.6mph 10°C 6°C
24/02/20 16:50 EGTE 241650Z 25018G28KT 9999 FEW020 BKN025 12/08 Q1007 WSW (250°) 20.7mph 32.2mph 12°C 8°C
24/02/20 16:20 EGTE 241620Z 25018KT 9999 BKN026 12/09 Q1007 WSW (250°) 20.7mph 12°C 9°C
24/02/20 15:50 EGTE 241550Z 25017G27KT 220V280 9999 BKN026 11/09 Q1007 WSW (250°) 19.6mph 31.1mph 11°C 9°C
24/02/20 14:50 EGTE 241450Z 25015KT 9999 FEW017 BKN025 13/10 Q1007 WSW (250°) 17.3mph 13°C 10°C
24/02/20 14:20 EGTE 241420Z 24012KT 9999 FEW017 BKN025 13/10 Q1007 WSW (240°) 13.8mph 13°C 10°C
24/02/20 13:50 EGTE 241350Z 23011KT 9999 FEW017 BKN022 12/11 Q1008 SW (230°) 12.7mph 12°C 11°C
24/02/20 13:20 EGTE 241320Z 21011KT 9999 FEW017 BKN022 12/10 Q1008 SSW (210°) 12.7mph 12°C 10°C
24/02/20 12:50 EGTE 241250Z 21010KT 9999 -RA BKN019 12/11 Q1008 -RA SSW (210°) 11.5mph 12°C 11°C
24/02/20 12:20 EGTE 241220Z 21012KT 9999 -RA BKN019 12/11 Q1009 -RA SSW (210°) 13.8mph 12°C 11°C
24/02/20 11:20 EGTE 241120Z 21013KT 9999 -RA FEW012 BKN020 11/10 Q1009 -RA SSW (210°) 15.0mph 11°C 10°C
24/02/20 10:50 EGTE 241050Z 21016KT 9999 -RA FEW015 BKN031 11/10 Q1010 -RA SSW (210°) 18.4mph 11°C 10°C
24/02/20 10:20 EGTE 241020Z 22019KT 9999 -RA FEW015 BKN025 11/10 Q1010 -RA SW (220°) 21.9mph 11°C 10°C
24/02/20 09:50 EGTE 240950Z 22018KT 9999 -RA FEW020 BKN030 10/09 Q1010 -RA SW (220°) 20.7mph 10°C 9°C
24/02/20 09:20 EGTE 240920Z 23018KT 9999 FEW012 SCT020 12/10 Q1010 SW (230°) 20.7mph 12°C 10°C
24/02/20 08:50 EGTE 240850Z 22018G29KT 9999 SCT014 SCT046 11/10 Q1011 SW (220°) 20.7mph 33.4mph 11°C 10°C
24/02/20 08:20 EGTE 240820Z 22017G31KT 9999 6000W VCSH BKN015 12/10 Q1011 VCSH SW (220°) 19.6mph 35.7mph 12°C 10°C
24/02/20 07:50 EGTE 240750Z 21015G25KT 170V230 9999 BKN017 11/09 Q1012 SSW (210°) 17.3mph 28.8mph 11°C 9°C